Time,TemperatureF,DewpointF,PressureIn,WindDirection,WindDirectionDegrees,WindSpeedMPH,WindSpeedGustMPH,Humidity,HourlyPrecipIn,Conditions,Clouds,dailyrainin,SoftwareType,DateUTC
2013-02-22 00:09:00,18.4,14.0,30.32,SE,144,0.0,1.0,83,0.00,,,0.00,weatherlink.com 1.10,2013-02-22 05:09:00,
2013-02-22 00:25:00,18.6,14.0,30.33,East,80,3.0,3.0,83,0.00,,,0.00,weatherlink.com 1.10,2013-02-22 05:25:00,
2013-02-22 00:40:00,19.3,15.0,30.31,South,174,0.0,3.0,82,0.00,,,0.00,weatherlink.com 1.10,2013-02-22 05:40:00,
2013-02-22 00:55:00,19.5,15.0,30.32,SE,138,0.0,3.0,81,0.00,,,0.00,weatherlink.com 1.10,2013-02-22 05:55:00,
2013-02-22 01:10:00,19.7,15.0,30.32,SSE,153,0.0,2.0,80,0.00,,,0.00,weatherlink.com 1.10,2013-02-22 06:10:00,
2013-02-22 01:25:00,19.9,15.0,30.33,SSE,153,0.0,0.0,81,0.00,,,0.00,weatherlink.com 1.10,2013-02-22 06:25:00,
2013-02-22 01:40:00,20.0,15.0,30.34,SSE,153,0.0,1.0,80,0.00,,,0.00,weatherlink.com 1.10,2013-02-22 06:40:00,
2013-02-22 01:55:00,20.2,15.0,30.32,SSE,153,0.0,1.0,81,0.00,,,0.00,weatherlink.com 1.10,2013-02-22 06:55:00,
2013-02-22 02:10:00,20.3,15.0,30.33,ENE,67,0.0,3.0,80,0.00,,,0.00,weatherlink.com 1.10,2013-02-22 07:10:00,
2013-02-22 02:25:00,20.6,15.0,30.34,East,99,0.0,1.0,79,0.00,,,0.00,weatherlink.com 1.10,2013-02-22 07:25:00,
2013-02-22 02:40:00,20.8,15.0,30.32,ESE,117,2.0,3.0,79,0.00,,,0.00,weatherlink.com 1.10,2013-02-22 07:40:00,
2013-02-22 02:55:00,20.9,15.0,30.31,East,94,0.0,3.0,78,0.00,,,0.00,weatherlink.com 1.10,2013-02-22 07:55:00,
2013-02-22 03:10:00,21.0,15.0,30.30,SE,126,0.0,4.0,79,0.00,,,0.00,weatherlink.com 1.10,2013-02-22 08:10:00,
2013-02-22 03:25:00,21.2,15.0,30.28,ESE,112,4.0,4.0,78,0.00,,,0.00,weatherlink.com 1.10,2013-02-22 08:25:00,
2013-02-22 03:40:00,21.6,16.0,30.28,SSE,149,2.0,6.0,78,0.00,,,0.00,weatherlink.com 1.10,2013-02-22 08:40:00,
2013-02-22 03:55:00,21.8,16.0,30.27,ESE,121,2.0,7.0,77,0.00,,,0.00,weatherlink.com 1.10,2013-02-22 08:55:00,
2013-02-22 04:10:00,22.0,16.0,30.26,East,87,0.0,8.0,77,0.00,,,0.00,weatherlink.com 1.10,2013-02-22 09:10:00,
2013-02-22 04:25:00,22.2,16.0,30.26,ESE,119,1.0,7.0,77,0.00,,,0.00,weatherlink.com 1.10,2013-02-22 09:25:00,
2013-02-22 04:40:00,22.5,16.0,30.26,East,98,5.0,7.0,77,0.00,,,0.00,weatherlink.com 1.10,2013-02-22 09:40:00,
2013-02-22 04:55:00,22.7,16.0,30.25,SE,135,0.0,8.0,76,0.00,,,0.00,weatherlink.com 1.10,2013-02-22 09:55:00,
2013-02-22 05:10:00,22.9,16.0,30.25,ESE,118,2.0,5.0,76,0.00,,,0.00,weatherlink.com 1.10,2013-02-22 10:10:00,
2013-02-22 05:25:00,23.1,17.0,30.25,ESE,115,0.0,5.0,76,0.00,,,0.00,weatherlink.com 1.10,2013-02-22 10:25:00,
2013-02-22 05:40:00,23.4,17.0,30.25,ESE,111,2.0,4.0,76,0.00,,,0.00,weatherlink.com 1.10,2013-02-22 10:40:00,
2013-02-22 05:55:00,23.7,17.0,30.23,ESE,102,3.0,8.0,76,0.00,,,0.00,weatherlink.com 1.10,2013-02-22 10:55:00,
2013-02-22 06:10:00,24.1,17.0,30.22,SW,234,1.0,11.0,75,0.00,,,0.00,weatherlink.com 1.10,2013-02-22 11:10:00,
2013-02-22 06:25:00,24.4,18.0,30.21,ESE,104,3.0,7.0,75,0.00,,,0.00,weatherlink.com 1.10,2013-02-22 11:25:00,
2013-02-22 06:40:00,24.7,18.0,30.20,East,80,3.0,8.0,75,0.00,,,0.00,weatherlink.com 1.10,2013-02-22 11:40:00,
2013-02-22 06:55:00,25.1,18.0,30.19,East,88,1.0,8.0,74,0.00,,,0.00,weatherlink.com 1.10,2013-02-22 11:55:00,
2013-02-22 07:10:00,25.4,18.0,30.18,ESE,105,4.0,6.0,73,0.00,,,0.00,weatherlink.com 1.10,2013-02-22 12:10:00,
2013-02-22 07:25:00,25.6,18.0,30.17,ESE,117,1.0,8.0,74,0.00,,,0.00,weatherlink.com 1.10,2013-02-22 12:25:00,
2013-02-22 07:41:00,26.1,19.0,30.16,East,101,1.0,8.0,73,0.00,,,0.00,weatherlink.com 1.10,2013-02-22 12:41:00,
2013-02-22 07:56:00,26.4,19.0,30.16,ENE,59,1.0,9.0,73,0.00,,,0.00,weatherlink.com 1.10,2013-02-22 12:56:00,
2013-02-22 08:11:00,26.9,19.0,30.16,ESE,117,1.0,6.0,72,0.00,,,0.00,weatherlink.com 1.10,2013-02-22 13:11:00,
2013-02-22 08:26:00,27.4,19.0,30.15,ESE,104,2.0,4.0,71,0.00,,,0.00,weatherlink.com 1.10,2013-02-22 13:26:00,
2013-02-22 08:41:00,27.9,20.0,30.15,NE,47,2.0,5.0,71,0.00,,,0.00,weatherlink.com 1.10,2013-02-22 13:41:00,
2013-02-22 08:56:00,28.4,20.0,30.14,NNE,31,1.0,5.0,72,0.00,,,0.00,weatherlink.com 1.10,2013-02-22 13:56:00,
2013-02-22 09:11:00,29.0,21.0,30.13,SE,129,4.0,9.0,72,0.00,,,0.00,weatherlink.com 1.10,2013-02-22 14:11:00,
2013-02-22 09:26:00,29.9,22.0,30.12,SE,132,4.0,9.0,71,0.00,,,0.00,weatherlink.com 1.10,2013-02-22 14:26:00,
2013-02-22 09:41:00,30.8,22.0,30.11,ESE,105,4.0,15.0,70,0.00,,,0.00,weatherlink.com 1.10,2013-02-22 14:41:00,
2013-02-22 09:56:00,31.5,22.0,30.12,WSW,252,2.0,8.0,68,0.00,,,0.00,weatherlink.com 1.10,2013-02-22 14:56:00,
2013-02-22 10:11:00,32.1,24.0,30.11,SE,138,1.0,6.0,72,0.00,,,0.00,weatherlink.com 1.10,2013-02-22 15:11:00,
2013-02-22 10:26:00,32.0,25.0,30.11,SSE,149,4.0,13.0,74,0.00,,,0.00,weatherlink.com 1.10,2013-02-22 15:26:00,
2013-02-22 10:41:00,31.9,25.0,30.11,South,186,2.0,14.0,77,0.00,,,0.00,weatherlink.com 1.10,2013-02-22 15:41:00,
2013-02-22 10:56:00,31.4,27.0,30.11,SSW,212,7.0,8.0,82,0.00,,,0.00,weatherlink.com 1.10,2013-02-22 15:56:00,
2013-02-22 11:11:00,31.2,27.0,30.11,SE,130,1.0,7.0,85,0.00,,,0.00,weatherlink.com 1.10,2013-02-22 16:11:00,
2013-02-22 11:26:00,31.1,27.0,30.11,West,266,1.0,5.0,86,0.00,,,0.00,weatherlink.com 1.10,2013-02-22 16:26:00,
2013-02-22 11:41:00,31.0,28.0,30.11,East,100,2.0,4.0,88,0.00,,,0.00,weatherlink.com 1.10,2013-02-22 16:41:00,
2013-02-22 11:56:00,30.7,28.0,30.11,East,86,1.0,5.0,90,0.00,,,0.00,weatherlink.com 1.10,2013-02-22 16:56:00,
2013-02-22 12:11:00,30.7,29.0,30.10,East,82,0.0,8.0,92,0.00,,,0.00,weatherlink.com 1.10,2013-02-22 17:11:00,
2013-02-22 12:26:00,30.8,29.0,30.09,SW,229,2.0,8.0,92,0.00,,,0.00,weatherlink.com 1.10,2013-02-22 17:26:00,
2013-02-22 12:42:00,30.8,29.0,30.09,SW,227,2.0,6.0,93,0.00,,,0.00,weatherlink.com 1.10,2013-02-22 17:42:00,
2013-02-22 13:11:00,31.0,29.0,30.09,West,279,0.0,5.0,93,0.00,,,0.00,weatherlink.com 1.10,2013-02-22 18:11:00,
2013-02-22 13:26:00,31.2,30.0,30.08,ESE,105,2.0,5.0,94,0.00,,,0.00,weatherlink.com 1.10,2013-02-22 18:26:00,
2013-02-22 13:41:00,31.3,30.0,30.07,ESE,117,2.0,5.0,93,0.00,,,0.00,weatherlink.com 1.10,2013-02-22 18:41:00,
2013-02-22 13:56:00,31.6,30.0,30.07,SW,217,0.0,5.0,94,0.00,,,0.00,weatherlink.com 1.10,2013-02-22 18:56:00,
2013-02-22 14:11:00,31.8,30.0,30.06,South,182,0.0,7.0,94,0.00,,,0.00,weatherlink.com 1.10,2013-02-22 19:11:00,
2013-02-22 14:26:00,32.1,31.0,30.06,SE,130,1.0,7.0,94,0.00,,,0.00,weatherlink.com 1.10,2013-02-22 19:26:00,
2013-02-22 14:41:00,32.4,31.0,30.06,West,264,1.0,5.0,94,0.00,,,0.00,weatherlink.com 1.10,2013-02-22 19:41:00,
2013-02-22 14:56:00,32.6,31.0,30.05,SE,130,1.0,5.0,94,0.03,,,0.03,weatherlink.com 1.10,2013-02-22 19:56:00,
2013-02-22 15:11:00,32.9,31.0,30.05,East,96,2.0,4.0,93,0.03,,,0.03,weatherlink.com 1.10,2013-02-22 20:11:00,
2013-02-22 15:26:00,33.2,31.0,30.05,ESE,106,2.0,7.0,93,0.03,,,0.03,weatherlink.com 1.10,2013-02-22 20:26:00,
2013-02-22 15:41:00,33.2,31.0,30.05,ESE,112,2.0,4.0,93,0.03,,,0.03,weatherlink.com 1.10,2013-02-22 20:41:00,
2013-02-22 15:56:00,33.2,31.0,30.05,SSE,163,0.0,2.0,93,0.00,,,0.03,weatherlink.com 1.10,2013-02-22 20:56:00,
2013-02-22 16:12:00,33.2,31.0,30.05,SSE,168,1.0,4.0,93,0.00,,,0.03,weatherlink.com 1.10,2013-02-22 21:12:00,
2013-02-22 16:27:00,33.3,32.0,30.04,ESE,123,1.0,4.0,93,0.00,,,0.03,weatherlink.com 1.10,2013-02-22 21:27:00,
2013-02-22 16:42:00,33.4,32.0,30.04,SSE,147,1.0,3.0,93,0.00,,,0.03,weatherlink.com 1.10,2013-02-22 21:42:00,
2013-02-22 16:57:00,33.5,32.0,30.04,South,178,0.0,3.0,93,0.00,,,0.03,weatherlink.com 1.10,2013-02-22 21:57:00,
2013-02-22 17:12:00,33.4,32.0,30.04,SE,142,0.0,5.0,93,0.00,,,0.03,weatherlink.com 1.10,2013-02-22 22:12:00,
2013-02-22 17:27:00,33.4,32.0,30.05,SE,133,0.0,3.0,93,0.00,,,0.03,weatherlink.com 1.10,2013-02-22 22:27:00,
2013-02-22 17:42:00,33.4,32.0,30.05,SSE,152,0.0,2.0,93,0.00,,,0.03,weatherlink.com 1.10,2013-02-22 22:42:00,
2013-02-22 17:57:00,33.3,32.0,30.05,ESE,105,0.0,2.0,93,0.00,,,0.03,weatherlink.com 1.10,2013-02-22 22:57:00,
2013-02-22 18:12:00,33.2,32.0,30.06,ESE,105,0.0,1.0,94,0.00,,,0.03,weatherlink.com 1.10,2013-02-22 23:12:00,
2013-02-22 18:27:00,33.2,32.0,30.05,SSE,157,0.0,3.0,94,0.00,,,0.03,weatherlink.com 1.10,2013-02-22 23:27:00,
2013-02-22 18:42:00,33.0,31.0,30.05,East,94,0.0,5.0,93,0.00,,,0.03,weatherlink.com 1.10,2013-02-22 23:42:00,
2013-02-22 18:57:00,33.0,31.0,30.06,SE,132,1.0,3.0,93,0.00,,,0.03,weatherlink.com 1.10,2013-02-22 23:57:00,
2013-02-22 19:12:00,33.0,31.0,30.05,SSW,197,0.0,4.0,93,0.00,,,0.03,weatherlink.com 1.10,2013-02-23 00:12:00,
2013-02-22 19:27:00,33.0,31.0,30.05,SSW,203,0.0,2.0,93,0.00,,,0.03,weatherlink.com 1.10,2013-02-23 00:27:00,
2013-02-22 19:42:00,32.9,31.0,30.05,SSW,203,0.0,1.0,93,0.00,,,0.03,weatherlink.com 1.10,2013-02-23 00:42:00,
2013-02-22 19:57:00,32.9,31.0,30.05,ESE,114,0.0,2.0,93,0.00,,,0.03,weatherlink.com 1.10,2013-02-23 00:57:00,
2013-02-22 20:12:00,32.9,31.0,30.06,ESE,114,0.0,0.0,93,0.00,,,0.03,weatherlink.com 1.10,2013-02-23 01:12:00,
2013-02-22 20:27:00,32.8,31.0,30.06,NNE,32,0.0,2.0,93,0.00,,,0.03,weatherlink.com 1.10,2013-02-23 01:27:00,
2013-02-22 20:42:00,32.8,31.0,30.07,NNE,32,0.0,0.0,93,0.00,,,0.03,weatherlink.com 1.10,2013-02-23 01:42:00,
2013-02-22 20:57:00,32.8,31.0,30.08,North,5,0.0,2.0,93,0.00,,,0.03,weatherlink.com 1.10,2013-02-23 01:57:00,
2013-02-22 21:12:00,32.7,31.0,30.07,ENE,60,0.0,3.0,93,0.00,,,0.03,weatherlink.com 1.10,2013-02-23 02:12:00,
2013-02-22 21:27:00,32.7,31.0,30.06,SE,137,0.0,2.0,93,0.00,,,0.03,weatherlink.com 1.10,2013-02-23 02:27:00,
2013-02-22 21:42:00,32.7,31.0,30.06,South,177,0.0,3.0,92,0.00,,,0.03,weatherlink.com 1.10,2013-02-23 02:42:00,
2013-02-22 21:57:00,32.7,31.0,30.06,NNE,30,0.0,1.0,92,0.00,,,0.03,weatherlink.com 1.10,2013-02-23 02:57:00,
2013-02-22 22:12:00,32.7,31.0,30.05,SE,134,0.0,3.0,92,0.00,,,0.03,weatherlink.com 1.10,2013-02-23 03:12:00,
2013-02-22 22:27:00,32.7,31.0,30.05,ESE,117,0.0,2.0,92,0.00,,,0.03,weatherlink.com 1.10,2013-02-23 03:27:00,
2013-02-22 22:42:00,32.8,31.0,30.05,SE,134,0.0,0.0,92,0.00,,,0.03,weatherlink.com 1.10,2013-02-23 03:42:00,
2013-02-22 22:57:00,32.8,31.0,30.05,South,185,1.0,3.0,92,0.00,,,0.03,weatherlink.com 1.10,2013-02-23 03:57:00,
2013-02-22 23:12:00,32.8,31.0,30.05,South,180,0.0,1.0,92,0.00,,,0.03,weatherlink.com 1.10,2013-02-23 04:12:00,
2013-02-22 23:27:00,32.9,31.0,30.05,South,185,0.0,2.0,92,0.00,,,0.03,weatherlink.com 1.10,2013-02-23 04:27:00,
2013-02-22 23:42:00,32.9,31.0,30.04,ESE,114,0.0,4.0,92,0.00,,,0.03,weatherlink.com 1.10,2013-02-23 04:42:00,
2013-02-22 23:57:00,32.9,31.0,30.04,SSE,149,0.0,1.0,91,0.00,,,0.00,weatherlink.com 1.10,2013-02-23 04:57:00,